Time;durP1;ratioP1;P1;durP2;ratioP2;P2;SDS_P1;SDS_P2;PMS_P1;PMS_P2;Temp;Humidity;BMP_temperature;BMP_pressure;BME280_temperature;BME280_humidity;BME280_pressure;Samples;Min_cycle;Max_cycle;Signal;HPM_P1;HPM_P2
2021/11/10 00:01:06;;;;;;;64.03;23.60;;;9.60;99.90;;;;;;5115688;28;20019;-68
2021/11/10 00:03:32;;;;;;;68.38;22.23;;;9.60;99.90;;;;;;5115362;28;20058;-68
2021/11/10 00:05:58;;;;;;;62.97;22.50;;;9.60;99.90;;;;;;5097405;28;20024;-68
2021/11/10 00:08:23;;;;;;;74.78;23.77;;;9.60;99.90;;;;;;5115745;28;20385;-68
2021/11/10 00:10:49;;;;;;;67.75;24.52;;;9.60;99.90;;;;;;5115597;28;20023;-68
2021/11/10 00:13:18;;;;;;;66.55;23.85;;;9.70;99.90;;;;;;5096154;28;20051;-68
2021/11/10 00:15:49;;;;;;;80.32;25.65;;;9.70;99.90;;;;;;5095050;28;20027;-69
2021/11/10 00:18:16;;;;;;;70.18;26.35;;;9.70;99.90;;;;;;5095293;28;20028;-68
2021/11/10 00:20:43;;;;;;;63.90;26.92;;;9.80;99.90;;;;;;5095851;28;20404;-68
2021/11/10 00:23:09;;;;;;;56.55;24.42;;;9.70;99.90;;;;;;5095290;28;20020;-68
2021/11/10 00:25:34;;;;;;;92.18;26.45;;;9.70;99.90;;;;;;5094221;28;20544;-68
2021/11/10 00:28:00;;;;;;;64.03;26.00;;;9.70;99.90;;;;;;5094851;28;20032;-68
2021/11/10 00:30:27;;;;;;;81.63;28.27;;;9.70;99.90;;;;;;5094863;28;20053;-68
2021/11/10 00:32:53;;;;;;;64.07;27.15;;;9.70;99.90;;;;;;5095033;28;20169;-69
2021/11/10 00:35:20;;;;;;;67.28;27.88;;;9.70;99.90;;;;;;5094626;28;20522;-68
2021/11/10 00:37:45;;;;;;;66.65;27.55;;;9.70;99.90;;;;;;5094618;28;20453;-68
2021/11/10 00:40:11;;;;;;;67.35;26.25;;;9.70;99.90;;;;;;5094655;28;20035;-68
2021/11/10 00:42:37;;;;;;;65.85;27.88;;;9.70;99.90;;;;;;5094624;28;20024;-68
2021/11/10 00:45:03;;;;;;;80.03;27.50;;;9.70;99.90;;;;;;5093965;28;20028;-68
2021/11/10 00:47:29;;;;;;;68.00;27.98;;;9.70;99.90;;;;;;5094425;28;20067;-68
2021/11/10 00:49:55;;;;;;;80.15;27.88;;;9.70;99.90;;;;;;5094489;28;20024;-68
2021/11/10 00:52:20;;;;;;;78.03;28.15;;;9.60;99.90;;;;;;5094723;28;20432;-68
2021/11/10 00:54:46;;;;;;;60.78;25.15;;;9.60;99.90;;;;;;5094337;28;20078;-69
2021/11/10 00:57:12;;;;;;;77.75;26.23;;;9.70;99.90;;;;;;5093709;28;20500;-68
2021/11/10 00:59:38;;;;;;;75.07;26.40;;;9.60;99.90;;;;;;5094319;28;20052;-68
2021/11/10 01:02:03;;;;;;;78.68;26.92;;;9.70;99.90;;;;;;5094230;28;20062;-68
2021/11/10 01:04:29;;;;;;;81.25;25.50;;;9.70;99.90;;;;;;5094473;28;20032;-68
2021/11/10 01:06:54;;;;;;;79.90;26.35;;;9.60;99.90;;;;;;5094104;28;20068;-68
2021/11/10 01:09:22;;;;;;;72.78;24.48;;;9.60;99.90;;;;;;5093799;28;20028;-69
2021/11/10 01:11:48;;;;;;;85.40;28.75;;;9.60;99.90;;;;;;5094047;28;20020;-69
2021/11/10 01:14:15;;;;;;;87.50;25.25;;;9.60;99.90;;;;;;5093979;28;20024;-68
2021/11/10 01:16:41;;;;;;;79.18;25.05;;;9.60;99.90;;;;;;5093567;28;20025;-68
2021/11/10 01:19:07;;;;;;;92.68;27.27;;;9.60;99.90;;;;;;5093963;28;20039;-68
2021/11/10 01:21:33;;;;;;;85.38;27.27;;;9.60;99.90;;;;;;5094060;28;20392;-68
2021/11/10 01:23:59;;;;;;;76.25;27.70;;;9.60;99.90;;;;;;5093884;28;20024;-68
2021/11/10 01:26:26;;;;;;;77.85;25.52;;;9.60;99.90;;;;;;5117721;22;20038;-66
2021/11/10 01:28:51;;;;;;;80.43;26.73;;;9.50;99.90;;;;;;5093996;28;20035;-66
2021/11/10 01:31:17;;;;;;;92.45;28.10;;;9.50;99.90;;;;;;5093750;28;20493;-66
2021/11/10 01:33:42;;;;;;;80.80;27.42;;;9.50;99.90;;;;;;5093969;28;20028;-66
2021/11/10 01:36:08;;;;;;;96.10;29.13;;;9.40;99.90;;;;;;5093064;28;20059;-66
2021/11/10 01:38:34;;;;;;;103.75;31.10;;;9.40;99.90;;;;;;5093551;28;20035;-65
2021/11/10 01:40:59;;;;;;;107.57;29.15;;;9.40;99.90;;;;;;5093593;28;20114;-66
2021/11/10 01:43:25;;;;;;;89.45;28.65;;;9.40;99.90;;;;;;5093148;28;20024;-65
2021/11/10 01:45:54;;;;;;;97.40;31.27;;;9.30;99.90;;;;;;5093505;28;20024;-66
2021/11/10 01:48:20;;;;;;;102.25;30.73;;;9.30;99.90;;;;;;5093649;28;20032;-66
2021/11/10 01:50:46;;;;;;;93.55;30.83;;;9.20;99.90;;;;;;5093475;28;20507;-66
2021/11/10 01:53:12;;;;;;;118.28;34.42;;;9.20;99.90;;;;;;5093406;28;20047;-66
2021/11/10 01:55:38;;;;;;;90.35;29.70;;;9.10;99.90;;;;;;5092879;28;20027;-66
2021/11/10 01:58:05;;;;;;;88.38;29.17;;;9.00;99.90;;;;;;5093598;28;20093;-66
2021/11/10 02:00:34;;;;;;;95.15;29.15;;;9.00;99.90;;;;;;5093579;28;20016;-66
2021/11/10 02:02:59;;;;;;;93.95;30.38;;;8.90;99.90;;;;;;5093472;28;20024;-66
2021/11/10 02:05:25;;;;;;;88.57;28.80;;;8.90;99.90;;;;;;5093630;28;20467;-66
2021/11/10 02:07:51;;;;;;;84.63;26.55;;;8.90;99.90;;;;;;5092827;28;20043;-66
2021/11/10 02:10:19;;;;;;;81.25;29.23;;;8.90;99.90;;;;;;5093455;28;20119;-66
2021/11/10 02:12:46;;;;;;;103.85;26.70;;;8.90;99.90;;;;;;5093275;28;20095;-66
2021/11/10 02:15:15;;;;;;;91.50;28.25;;;8.90;99.90;;;;;;5095755;28;20421;-66
2021/11/10 02:17:41;;;;;;;74.57;26.15;;;8.90;99.90;;;;;;5097329;28;20096;-66
2021/11/10 02:20:09;;;;;;;72.05;24.92;;;9.00;99.90;;;;;;5097577;28;20058;-66
2021/11/10 02:22:36;;;;;;;74.82;24.50;;;9.00;99.90;;;;;;5096777;28;20016;-66
2021/11/10 02:25:03;;;;;;;72.10;25.17;;;9.00;99.90;;;;;;5097576;28;20031;-66
2021/11/10 02:27:35;;;;;;;71.10;24.50;;;9.00;99.90;;;;;;5097173;28;20032;-66
2021/11/10 02:30:06;;;;;;;84.78;24.92;;;9.10;99.90;;;;;;5097524;28;20032;-66
2021/11/10 02:32:32;;;;;;;75.13;23.02;;;9.10;99.90;;;;;;5097102;28;20471;-66
2021/11/10 02:34:58;;;;;;;72.55;23.08;;;9.10;99.90;;;;;;5096483;28;20024;-66
2021/11/10 02:37:24;;;;;;;71.63;24.10;;;9.10;99.90;;;;;;5097227;28;20031;-66
2021/11/10 02:39:51;;;;;;;73.25;24.48;;;9.10;99.90;;;;;;5097285;28;20056;-66
2021/11/10 02:42:18;;;;;;;62.13;24.02;;;9.20;99.90;;;;;;5096916;28;20024;-66
2021/11/10 02:44:47;;;;;;;69.43;24.10;;;9.20;99.90;;;;;;5096581;28;20055;-65
2021/11/10 02:47:13;;;;;;;69.38;24.13;;;9.20;99.90;;;;;;5096777;28;20041;-66
2021/11/10 02:49:39;;;;;;;63.63;21.73;;;9.20;99.90;;;;;;5097193;28;20028;-66
2021/11/10 02:52:06;;;;;;;66.97;23.08;;;9.20;99.90;;;;;;5096817;28;20031;-66
2021/11/10 02:54:35;;;;;;;78.78;24.13;;;9.20;99.90;;;;;;5096518;28;20064;-66
2021/11/10 02:57:03;;;;;;;48.15;22.10;;;9.20;99.90;;;;;;5096360;28;20024;-66
2021/11/10 02:59:29;;;;;;;65.30;23.73;;;9.30;99.90;;;;;;5096553;28;20016;-66
2021/11/10 03:01:57;;;;;;;61.22;22.95;;;9.30;99.90;;;;;;5096616;28;20032;-66
2021/11/10 03:04:26;;;;;;;54.78;23.27;;;9.30;99.90;;;;;;5096440;28;20037;-66
2021/11/10 03:06:53;;;;;;;54.00;22.63;;;9.30;99.90;;;;;;5096467;28;20069;-66
2021/11/10 03:09:21;;;;;;;71.35;25.17;;;9.30;99.90;;;;;;5096687;28;20024;-66
2021/11/10 03:11:47;;;;;;;66.38;24.13;;;9.30;99.90;;;;;;5096069;28;20416;-66
2021/11/10 03:14:13;;;;;;;70.53;27.85;;;9.30;99.90;;;;;;5096385;28;20106;-66
2021/11/10 03:16:40;;;;;;;63.95;25.30;;;9.30;99.90;;;;;;5096410;28;20024;-66
2021/11/10 03:19:05;;;;;;;79.32;27.92;;;9.30;99.90;;;;;;5095736;28;20471;-66
2021/11/10 03:21:31;;;;;;;60.10;26.73;;;9.30;99.90;;;;;;5096747;28;20108;-66
2021/11/10 03:23:57;;;;;;;60.47;25.63;;;9.20;99.90;;;;;;5096135;28;20020;-66
2021/11/10 03:26:22;;;;;;;66.50;27.20;;;9.20;99.90;;;;;;5095303;28;20034;-66
2021/11/10 03:28:49;;;;;;;74.53;27.90;;;9.20;99.90;;;;;;5096415;28;20111;-66
2021/11/10 03:31:15;;;;;;;77.55;27.33;;;9.20;99.90;;;;;;5096046;28;20036;-66
2021/11/10 03:33:41;;;;;;;75.28;27.60;;;9.30;99.90;;;;;;5095957;28;20499;-66
2021/11/10 03:36:07;;;;;;;77.90;29.25;;;9.30;99.90;;;;;;5095989;28;20027;-66
2021/11/10 03:38:32;;;;;;;81.13;28.30;;;9.30;99.90;;;;;;5096006;28;20028;-66
2021/11/10 03:40:58;;;;;;;64.18;27.23;;;9.20;99.90;;;;;;5095287;28;20099;-66
2021/11/10 03:43:23;;;;;;;68.63;29.40;;;9.20;99.90;;;;;;5095829;28;20419;-66
2021/11/10 03:45:49;;;;;;;64.60;28.50;;;9.20;99.90;;;;;;5095757;28;20039;-66
2021/11/10 03:48:15;;;;;;;78.47;29.77;;;9.20;99.90;;;;;;5095943;28;20162;-66
2021/11/10 03:50:40;;;;;;;62.25;28.70;;;9.20;99.90;;;;;;5095646;28;20027;-66
2021/11/10 03:53:07;;;;;;;85.97;31.45;;;9.20;99.90;;;;;;5095634;28;20032;-66
2021/11/10 03:55:36;;;;;;;65.95;29.08;;;9.20;99.90;;;;;;5095231;28;20028;-66
2021/11/10 03:58:03;;;;;;;91.20;29.77;;;9.20;99.90;;;;;;5095231;28;20502;-66
2021/11/10 04:00:28;;;;;;;77.93;30.73;;;9.30;99.90;;;;;;5095723;28;20165;-66
2021/11/10 04:02:54;;;;;;;64.10;26.67;;;9.30;99.90;;;;;;5095273;28;20483;-66
2021/11/10 04:05:20;;;;;;;61.03;26.85;;;9.30;99.90;;;;;;5095605;28;20059;-66
2021/11/10 04:07:45;;;;;;;77.15;28.60;;;9.30;99.90;;;;;;5094729;28;20387;-66
2021/11/10 04:10:11;;;;;;;85.43;30.17;;;9.40;99.90;;;;;;5095561;28;20046;-66
2021/11/10 04:12:37;;;;;;;66.10;28.95;;;9.30;99.90;;;;;;5095246;28;20020;-66
2021/11/10 04:15:03;;;;;;;74.57;31.08;;;9.40;99.90;;;;;;5095079;28;20090;-66
2021/11/10 04:17:28;;;;;;;73.38;29.67;;;9.40;99.90;;;;;;5094769;28;20107;-66
2021/11/10 04:19:54;;;;;;;73.93;30.42;;;9.40;99.90;;;;;;5095396;28;20024;-66
2021/11/10 04:22:20;;;;;;;96.85;32.03;;;9.40;99.90;;;;;;5095045;28;20102;-66
2021/11/10 04:24:47;;;;;;;84.63;33.53;;;9.40;99.90;;;;;;5095238;28;20028;-66
2021/11/10 04:27:12;;;;;;;82.50;32.15;;;9.40;99.90;;;;;;5094861;28;20078;-66
2021/11/10 04:29:38;;;;;;;76.80;31.10;;;9.40;99.90;;;;;;5095174;28;20047;-66
2021/11/10 04:32:05;;;;;;;70.75;31.60;;;9.40;99.90;;;;;;5094621;28;20028;-66
2021/11/10 04:34:30;;;;;;;102.00;35.28;;;9.40;99.90;;;;;;5094756;28;20062;-66
2021/11/10 04:36:56;;;;;;;87.05;33.60;;;9.40;99.90;;;;;;5094412;28;20051;-66
2021/11/10 04:39:21;;;;;;;82.47;34.50;;;9.40;99.90;;;;;;5095001;28;20020;-66
2021/11/10 04:41:47;;;;;;;86.47;34.28;;;9.40;99.90;;;;;;5094622;28;20056;-66
2021/11/10 04:44:13;;;;;;;95.32;37.55;;;9.40;99.90;;;;;;5094117;28;20024;-66
2021/11/10 04:46:38;;;;;;;86.45;35.13;;;9.50;99.90;;;;;;5094770;28;20524;-66
2021/11/10 04:49:05;;;;;;;91.85;36.95;;;9.50;99.90;;;;;;5094787;28;20024;-65
2021/11/10 04:51:31;;;;;;;113.20;37.75;;;9.50;99.90;;;;;;5094738;28;20103;-66
2021/11/10 04:53:57;;;;;;;96.70;38.63;;;9.60;99.90;;;;;;5093927;28;20437;-66
2021/11/10 04:56:23;;;;;;;99.43;40.63;;;9.60;99.90;;;;;;5094502;28;20024;-66
2021/11/10 04:58:49;;;;;;;97.68;37.95;;;9.60;99.90;;;;;;5094371;28;20035;-66
2021/11/10 05:01:27;;;;;;;99.30;39.15;;;9.60;99.90;;;;;;5094323;28;20050;-66
2021/11/10 05:03:56;;;;;;;98.05;38.42;;;9.60;99.90;;;;;;5094517;28;20074;-66
2021/11/10 05:06:22;;;;;;;99.97;39.58;;;9.60;99.90;;;;;;5093623;28;20182;-66
2021/11/10 05:08:48;;;;;;;94.78;35.90;;;9.70;99.90;;;;;;5094143;28;20024;-66
2021/11/10 05:11:15;;;;;;;90.53;35.65;;;9.60;99.90;;;;;;5094389;28;20089;-66
2021/11/10 05:13:40;;;;;;;91.88;37.75;;;9.70;99.90;;;;;;5094343;28;20027;-66
2021/11/10 05:16:06;;;;;;;92.68;36.50;;;9.70;99.90;;;;;;5093942;28;20391;-66
2021/11/10 05:18:32;;;;;;;91.38;36.67;;;9.70;99.90;;;;;;5093343;28;20103;-66
2021/11/10 05:20:57;;;;;;;90.45;34.30;;;9.70;99.90;;;;;;5094171;28;20027;-66
2021/11/10 05:23:23;;;;;;;88.22;35.97;;;9.70;99.90;;;;;;5094192;28;20081;-66
2021/11/10 05:25:49;;;;;;;79.38;34.25;;;9.70;99.90;;;;;;5094430;28;20020;-66
2021/11/10 05:28:15;;;;;;;94.55;34.83;;;9.70;99.90;;;;;;5093358;28;20121;-66
2021/11/10 05:30:41;;;;;;;98.47;34.42;;;9.70;99.90;;;;;;5093506;28;20040;-66
2021/11/10 05:33:07;;;;;;;86.75;34.28;;;9.70;99.90;;;;;;5093727;28;20391;-67
2021/11/10 05:35:34;;;;;;;94.30;35.40;;;9.70;99.90;;;;;;5093917;28;20059;-66
2021/11/10 05:38:00;;;;;;;107.43;37.10;;;9.70;99.90;;;;;;5093650;28;20017;-66
2021/11/10 05:40:26;;;;;;;95.70;37.22;;;9.70;99.90;;;;;;5093425;28;20032;-66
2021/11/10 05:42:51;;;;;;;95.78;37.88;;;9.70;99.90;;;;;;5093888;28;20070;-66
2021/11/10 05:45:17;;;;;;;105.55;37.92;;;9.70;99.90;;;;;;5093546;28;20031;-66
2021/11/10 05:47:43;;;;;;;107.55;37.90;;;9.70;99.90;;;;;;5093497;28;20074;-66
2021/11/10 05:50:09;;;;;;;110.00;38.60;;;9.80;99.90;;;;;;5092683;28;20050;-66
2021/11/10 05:52:36;;;;;;;106.35;39.88;;;9.70;99.90;;;;;;5093198;28;20035;-66
2021/11/10 05:55:04;;;;;;;118.22;40.40;;;9.80;99.90;;;;;;5093593;28;20389;-66
2021/11/10 05:57:31;;;;;;;114.18;42.88;;;9.80;99.90;;;;;;5093635;28;20012;-66
2021/11/10 05:59:56;;;;;;;105.90;41.85;;;9.80;99.90;;;;;;5093354;28;20027;-66
2021/11/10 06:02:22;;;;;;;107.65;41.90;;;9.80;99.90;;;;;;5093596;28;20471;-66
2021/11/10 06:04:48;;;;;;;120.63;43.33;;;9.80;99.90;;;;;;5092761;28;20471;-66
2021/11/10 06:07:13;;;;;;;99.25;43.78;;;9.90;99.90;;;;;;5093528;28;20024;-66
2021/11/10 06:09:39;;;;;;;96.72;42.17;;;9.90;99.90;;;;;;5093258;28;20530;-66
2021/11/10 06:12:06;;;;;;;100.88;41.13;;;9.90;99.90;;;;;;5093016;28;20024;-66
2021/11/10 06:14:31;;;;;;;109.07;43.17;;;9.90;99.90;;;;;;5093095;28;20027;-66
2021/11/10 06:16:57;;;;;;;101.60;40.25;;;9.90;99.90;;;;;;5093166;28;20460;-66
2021/11/10 06:19:25;;;;;;;93.88;41.30;;;9.90;99.90;;;;;;5092886;28;20025;-66
2021/11/10 06:21:52;;;;;;;101.65;41.05;;;10.00;99.90;;;;;;5093427;28;20132;-66
2021/11/10 06:24:20;;;;;;;90.35;40.65;;;10.00;99.90;;;;;;5093399;28;20027;-66
2021/11/10 06:26:46;;;;;;;101.40;39.47;;;9.90;99.90;;;;;;5093103;28;20036;-66
2021/11/10 06:29:12;;;;;;;99.70;38.78;;;9.90;99.90;;;;;;5093523;28;20028;-66
2021/11/10 06:31:37;;;;;;;95.32;36.95;;;9.90;99.90;;;;;;5092563;28;20043;-66
2021/11/10 06:34:03;;;;;;;99.82;36.25;;;10.00;99.90;;;;;;5093031;28;20032;-66
2021/11/10 06:36:28;;;;;;;91.15;39.30;;;10.00;99.90;;;;;;5092909;28;20031;-66
2021/11/10 06:38:54;;;;;;;89.53;36.78;;;10.00;99.90;;;;;;5092753;28;20387;-66
2021/11/10 06:41:20;;;;;;;106.60;39.75;;;10.00;99.90;;;;;;5092945;28;20608;-66
2021/11/10 06:43:49;;;;;;;87.38;37.85;;;10.00;99.90;;;;;;5092887;28;20056;-66
2021/11/10 06:46:15;;;;;;;104.72;41.17;;;10.00;99.90;;;;;;5092859;28;20525;-66
2021/11/10 06:48:42;;;;;;;102.50;38.20;;;10.00;99.90;;;;;;5092651;28;20036;-66
2021/11/10 06:51:08;;;;;;;106.20;38.55;;;10.00;99.90;;;;;;5093139;28;20360;-66
2021/11/10 06:53:35;;;;;;;101.75;38.67;;;10.00;99.90;;;;;;5092888;28;20031;-66
2021/11/10 06:56:00;;;;;;;101.35;36.53;;;10.00;99.90;;;;;;5093064;28;20027;-66
2021/11/10 06:58:26;;;;;;;114.32;40.30;;;10.00;99.90;;;;;;5092741;28;20036;-66
2021/11/10 07:00:52;;;;;;;111.45;38.60;;;10.10;99.90;;;;;;5076228;28;20035;-66
2021/11/10 07:03:17;;;;;;;107.38;37.08;;;10.10;99.90;;;;;;5096134;28;20428;-66
2021/11/10 07:05:43;;;;;;;115.35;36.83;;;10.10;99.90;;;;;;5096814;28;20036;-66
2021/11/10 07:08:08;;;;;;;100.90;35.45;;;10.10;99.90;;;;;;5096404;28;20036;-66
2021/11/10 07:10:34;;;;;;;106.15;34.85;;;10.10;99.90;;;;;;5095971;28;20028;-66
2021/11/10 07:12:59;;;;;;;130.07;36.03;;;10.10;99.90;;;;;;5096445;28;20506;-66
2021/11/10 07:15:25;;;;;;;115.70;36.42;;;10.10;99.90;;;;;;5096839;28;20077;-66
2021/11/10 07:17:52;;;;;;;120.57;34.92;;;10.10;99.90;;;;;;5096149;28;20048;-66
2021/11/10 07:20:19;;;;;;;112.05;35.30;;;10.10;99.90;;;;;;5096260;28;20059;-66
2021/11/10 07:22:45;;;;;;;121.70;35.17;;;10.10;99.90;;;;;;5095768;28;20078;-66
2021/11/10 07:25:12;;;;;;;121.47;36.05;;;10.10;99.90;;;;;;5096761;28;20020;-66
2021/11/10 07:27:38;;;;;;;98.05;37.33;;;10.10;99.90;;;;;;5120013;22;20059;-69
2021/11/10 07:30:06;;;;;;;118.38;37.85;;;10.00;99.90;;;;;;5096115;28;20024;-69
2021/11/10 07:32:35;;;;;;;99.10;36.00;;;10.00;99.90;;;;;;5077378;28;20016;-69
2021/11/10 07:35:01;;;;;;;110.00;36.08;;;10.00;99.90;;;;;;5095942;28;20024;-68
2021/11/10 07:37:26;;;;;;;124.70;40.55;;;10.00;99.90;;;;;;5096021;28;20095;-68
2021/11/10 07:39:52;;;;;;;123.00;38.33;;;10.00;99.90;;;;;;5095941;28;20027;-69
2021/11/10 07:42:17;;;;;;;132.32;39.10;;;10.00;99.90;;;;;;5095345;28;20024;-68
2021/11/10 07:44:43;;;;;;;120.07;34.63;;;10.00;99.90;;;;;;5095849;28;20035;-68
2021/11/10 07:47:14;;;;;;;110.95;37.90;;;10.00;99.90;;;;;;5095965;28;20016;-68
2021/11/10 07:49:39;;;;;;;109.50;35.70;;;10.00;99.90;;;;;;5095769;28;20475;-68
2021/11/10 07:52:05;;;;;;;106.00;39.58;;;9.90;99.90;;;;;;5095865;28;20028;-68
2021/11/10 07:54:31;;;;;;;134.63;40.78;;;9.90;99.90;;;;;;5095047;28;20391;-68
2021/11/10 07:56:57;;;;;;;99.28;37.00;;;9.70;99.90;;;;;;5095191;28;20024;-69
2021/11/10 07:59:22;;;;;;;113.43;36.50;;;9.60;99.90;;;;;;5095420;28;20024;-68
2021/11/10 08:01:48;;;;;;;106.88;37.67;;;9.60;99.90;;;;;;5095035;28;20024;-68
2021/11/10 08:04:13;;;;;;;128.00;39.10;;;9.60;99.90;;;;;;5095461;28;20103;-68
2021/11/10 08:06:39;;;;;;;101.65;37.65;;;9.50;99.90;;;;;;5095361;28;20036;-68
2021/11/10 08:09:04;;;;;;;105.47;38.85;;;9.50;99.90;;;;;;5095377;28;20032;-68
2021/11/10 08:11:30;;;;;;;103.38;39.00;;;9.60;99.90;;;;;;5095144;28;20028;-68
2021/11/10 08:13:57;;;;;;;116.18;38.28;;;9.60;99.90;;;;;;5094275;28;20032;-68
2021/11/10 08:16:23;;;;;;;121.55;39.35;;;9.60;99.90;;;;;;5076911;28;20028;-68
2021/11/10 08:18:48;;;;;;;99.85;39.10;;;9.60;99.90;;;;;;5095420;28;20364;-68
2021/11/10 08:21:14;;;;;;;107.32;41.75;;;9.70;99.90;;;;;;5095139;28;20051;-68
2021/11/10 08:23:39;;;;;;;93.68;37.10;;;9.70;99.90;;;;;;5076964;28;20391;-68
2021/11/10 08:26:05;;;;;;;108.20;37.47;;;9.70;99.90;;;;;;5095552;28;20497;-68
2021/11/10 08:28:31;;;;;;;96.00;36.75;;;9.70;99.90;;;;;;5094337;28;20040;-68
2021/11/10 08:30:57;;;;;;;84.85;36.22;;;9.70;99.90;;;;;;5094860;28;20020;-68
2021/11/10 08:33:23;;;;;;;99.07;37.58;;;9.60;99.90;;;;;;5094844;28;20027;-68
2021/11/10 08:35:49;;;;;;;101.20;39.60;;;9.60;99.90;;;;;;5095015;28;20024;-68
2021/11/10 08:38:17;;;;;;;94.00;38.90;;;9.40;99.90;;;;;;5094199;28;20020;-68
2021/11/10 08:40:43;;;;;;;97.40;39.22;;;9.40;99.90;;;;;;5094689;28;20024;-68
2021/11/10 08:43:11;;;;;;;104.95;41.35;;;9.30;99.90;;;;;;5094954;28;20017;-68
2021/11/10 08:45:38;;;;;;;97.78;39.72;;;9.30;99.90;;;;;;5094053;28;20099;-68
2021/11/10 08:48:05;;;;;;;84.10;37.08;;;9.30;99.90;;;;;;5094733;28;20028;-68
2021/11/10 08:50:34;;;;;;;103.20;41.22;;;9.30;99.90;;;;;;5094402;28;20108;-68
2021/11/10 08:53:00;;;;;;;86.30;39.55;;;9.40;99.90;;;;;;5076340;28;20552;-68
2021/11/10 08:55:26;;;;;;;90.55;40.95;;;9.40;99.90;;;;;;5094043;28;20024;-69
2021/11/10 08:57:52;;;;;;;112.63;41.47;;;9.50;99.90;;;;;;5094297;28;20024;-68
2021/11/10 09:00:21;;;;;;;109.85;39.00;;;9.50;99.90;;;;;;5094665;28;20027;-68
2021/11/10 09:02:47;;;;;;;117.57;42.38;;;9.50;99.90;;;;;;5094235;28;20387;-68
2021/11/10 09:05:14;;;;;;;101.95;37.67;;;9.50;99.90;;;;;;5093774;28;20036;-68
2021/11/10 09:07:40;;;;;;;111.70;41.30;;;9.50;99.90;;;;;;5094145;28;20024;-68
2021/11/10 09:10:10;;;;;;;104.82;39.83;;;9.60;99.90;;;;;;5094509;28;20027;-68
2021/11/10 09:12:37;;;;;;;111.68;40.80;;;9.60;99.90;;;;;;5094404;28;20395;-68
2021/11/10 09:15:03;;;;;;;96.65;36.17;;;9.60;99.90;;;;;;5093984;28;20022;-68
2021/11/10 09:17:34;;;;;;;105.88;38.75;;;9.70;99.90;;;;;;5093923;28;20028;-68
2021/11/10 09:20:01;;;;;;;118.97;40.50;;;9.70;99.90;;;;;;5093672;28;20020;-68
2021/11/10 09:22:26;;;;;;;97.53;39.20;;;9.70;99.90;;;;;;5094213;28;20027;-68
2021/11/10 09:24:52;;;;;;;91.47;38.65;;;9.80;99.90;;;;;;5093770;28;20027;-68
2021/11/10 09:27:18;;;;;;;85.10;38.53;;;9.80;99.90;;;;;;5093167;28;20090;-68
2021/11/10 09:29:44;;;;;;;84.53;38.13;;;9.80;99.90;;;;;;5094051;28;20034;-68
2021/11/10 09:32:09;;;;;;;102.78;38.78;;;9.80;99.90;;;;;;5093809;28;20076;-68
2021/11/10 09:34:36;;;;;;;100.57;37.42;;;9.80;99.90;;;;;;5093683;28;20053;-68
2021/11/10 09:37:02;;;;;;;97.95;37.30;;;9.80;99.90;;;;;;5093678;28;20035;-68
2021/11/10 09:39:28;;;;;;;72.60;34.08;;;9.80;99.90;;;;;;5093024;28;20387;-68
2021/11/10 09:41:54;;;;;;;99.40;38.10;;;9.80;99.90;;;;;;5093781;28;20039;-68
2021/11/10 09:44:22;;;;;;;98.97;39.17;;;9.80;99.90;;;;;;5093644;28;20052;-70
2021/11/10 09:46:50;;;;;;;92.60;37.60;;;9.90;99.90;;;;;;5093523;28;20387;-68
2021/11/10 09:49:15;;;;;;;94.47;38.95;;;9.90;99.90;;;;;;5093687;28;20020;-68
2021/11/10 09:51:44;;;;;;;88.60;35.97;;;9.90;99.90;;;;;;5092985;28;20051;-68
2021/11/10 09:54:12;;;;;;;90.05;38.92;;;10.00;99.90;;;;;;5093453;28;20475;-68
2021/11/10 09:56:38;;;;;;;98.88;37.13;;;10.10;99.90;;;;;;5093374;28;20437;-68
2021/11/10 09:59:04;;;;;;;82.22;35.30;;;10.10;99.90;;;;;;5093460;28;20028;-68
2021/11/10 10:01:33;;;;;;;80.28;36.92;;;10.20;99.90;;;;;;5093653;28;20378;-68
2021/11/10 10:04:00;;;;;;;102.97;38.70;;;10.30;99.90;;;;;;5092846;28;20020;-68
2021/11/10 10:06:27;;;;;;;94.30;37.63;;;10.40;99.90;;;;;;5093485;28;20034;-68
2021/11/10 10:08:53;;;;;;;90.68;36.40;;;10.40;99.90;;;;;;5093501;28;20028;-68
2021/11/10 10:11:19;;;;;;;85.32;36.22;;;10.50;99.90;;;;;;5093552;28;20054;-68
2021/11/10 10:13:45;;;;;;;91.85;37.38;;;10.50;99.90;;;;;;5092815;28;20388;-68
2021/11/10 10:16:17;;;;;;;92.88;39.25;;;10.50;99.90;;;;;;5093129;28;20024;-68
2021/11/10 10:18:43;;;;;;;91.13;36.45;;;10.50;99.90;;;;;;5093413;28;20103;-68
2021/11/10 10:21:10;;;;;;;85.20;36.92;;;10.60;99.90;;;;;;5093403;28;20074;-68
2021/11/10 10:23:40;;;;;;;93.90;40.03;;;10.60;99.90;;;;;;5093420;28;20024;-68
2021/11/10 10:26:11;;;;;;;89.60;37.72;;;10.70;99.90;;;;;;5093082;28;20109;-68
2021/11/10 10:28:41;;;;;;;91.07;39.58;;;10.80;99.90;;;;;;5092499;28;20032;-68
2021/11/10 10:31:10;;;;;;;88.70;38.13;;;10.80;99.90;;;;;;5093395;28;20024;-68
2021/11/10 10:33:44;;;;;;;111.85;38.92;;;10.80;99.90;;;;;;5092987;28;20024;-68
2021/11/10 10:36:16;;;;;;;102.43;38.08;;;10.80;99.90;;;;;;5095061;28;20483;-68
2021/11/10 10:39:05;;;;;;;98.75;39.25;;;10.80;99.90;;;;;;5097007;28;20020;-68
2021/11/10 10:41:37;;;;;;;105.97;40.53;;;10.80;99.90;;;;;;5096516;28;20377;-68
2021/11/10 10:44:18;;;;;;;95.35;39.03;;;10.80;99.90;;;;;;5096832;28;20016;-68
2021/11/10 10:46:54;;;;;;;100.00;38.10;;;10.80;99.90;;;;;;5097212;28;20016;-68
2021/11/10 10:49:30;;;;;;;98.45;38.85;;;10.80;99.90;;;;;;5097121;28;20111;-68
2021/11/10 10:52:19;;;;;;;99.90;39.53;;;10.80;99.90;;;;;;5097144;28;20069;-68
2021/11/10 10:54:47;;;;;;;94.13;40.05;;;10.80;99.90;;;;;;5096156;28;20028;-68
2021/11/10 10:57:22;;;;;;;104.43;41.17;;;10.80;99.90;;;;;;5096973;28;20475;-68
2021/11/10 11:00:06;;;;;;;115.25;41.22;;;10.80;99.90;;;;;;5096954;28;20107;-68
2021/11/10 11:02:32;;;;;;;95.13;40.78;;;10.80;99.90;;;;;;5096136;28;20016;-68
2021/11/10 11:04:57;;;;;;;110.50;41.35;;;10.90;99.90;;;;;;5097170;28;20028;-68
2021/11/10 11:07:30;;;;;;;99.13;43.95;;;10.80;99.90;;;;;;5096525;28;20085;-68
2021/11/10 11:09:55;;;;;;;98.35;40.05;;;10.90;99.90;;;;;;5096801;28;20059;-68
2021/11/10 11:12:29;;;;;;;100.95;41.70;;;11.00;99.90;;;;;;5096464;28;20028;-68
2021/11/10 11:15:09;;;;;;;105.88;43.03;;;10.90;99.90;;;;;;5096368;28;20070;-68
2021/11/10 11:17:37;;;;;;;106.03;40.92;;;10.90;99.90;;;;;;5095876;28;20028;-68
2021/11/10 11:20:12;;;;;;;99.20;40.58;;;10.90;99.90;;;;;;5096360;28;20024;-68
2021/11/10 11:22:54;;;;;;;99.72;42.03;;;10.90;99.90;;;;;;5083701;28;20081;-68
2021/11/10 11:25:23;;;;;;;90.30;38.35;;;11.00;99.90;;;;;;5088517;28;20051;-68
2021/11/10 11:28:12;;;;;;;95.95;38.70;;;11.00;99.90;;;;;;5081295;28;20042;-68
2021/11/10 11:30:42;;;;;;;92.60;37.28;;;11.00;99.90;;;;;;5082001;28;20040;-68
2021/11/10 11:33:15;;;;;;;98.90;40.72;;;11.10;99.90;;;;;;5085982;28;20069;-68
2021/11/10 11:35:53;;;;;;;96.65;38.58;;;11.10;99.90;;;;;;5083714;28;20408;-68
2021/11/10 11:38:24;;;;;;;94.93;39.85;;;11.00;99.90;;;;;;5085636;28;20036;-68
2021/11/10 11:40:52;;;;;;;94.80;38.38;;;11.10;99.90;;;;;;5087509;28;20016;-68
2021/11/10 11:43:20;;;;;;;101.82;38.50;;;11.00;99.90;;;;;;5083691;28;20127;-68
2021/11/10 11:45:51;;;;;;;95.30;39.40;;;11.00;99.90;;;;;;5081164;28;20036;-68
2021/11/10 11:48:18;;;;;;;101.68;39.58;;;11.10;99.90;;;;;;5082752;28;20490;-68
2021/11/10 11:50:45;;;;;;;96.63;39.25;;;11.00;99.90;;;;;;5083954;28;20676;-68
2021/11/10 11:53:11;;;;;;;91.43;37.92;;;11.00;99.90;;;;;;5086258;28;20511;-68
2021/11/10 11:55:55;;;;;;;91.70;38.78;;;11.00;99.90;;;;;;5085609;28;20040;-68
2021/11/10 11:58:29;;;;;;;89.47;36.63;;;11.00;99.90;;;;;;5083470;28;20465;-68
2021/11/10 12:01:04;;;;;;;85.57;35.08;;;11.00;99.90;;;;;;5076698;28;20488;-68
2021/11/10 12:03:34;;;;;;;95.20;36.55;;;11.00;99.90;;;;;;5075494;28;20029;-68
2021/11/10 12:06:03;;;;;;;100.50;40.20;;;11.00;99.90;;;;;;5075056;28;20036;-68
2021/11/10 12:08:47;;;;;;;91.00;36.53;;;11.00;99.90;;;;;;5074505;28;20395;-69
2021/11/10 12:11:31;;;;;;;91.38;36.17;;;11.00;99.90;;;;;;5075099;28;20071;-69
2021/11/10 12:14:07;;;;;;;;;;;11.10;99.90;;;;;;5075667;28;20063;-69
2021/11/10 12:16:51;;;;;;;98.60;39.67;;;11.00;99.90;;;;;;5074831;28;19915;-69
2021/11/10 12:19:46;;;;;;;93.43;38.45;;;11.10;99.90;;;;;;5056948;28;20028;-71
2021/11/10 12:22:15;;;;;;;100.65;40.58;;;11.00;99.90;;;;;;5060161;28;20492;-71
2021/11/10 12:25:00;;;;;;;102.57;37.47;;;11.10;99.90;;;;;;5074794;28;20021;-71
2021/11/10 12:27:32;;;;;;;95.70;37.13;;;11.10;99.90;;;;;;5056640;28;20035;-71
2021/11/10 12:30:19;;;;;;;98.30;37.88;;;11.10;99.90;;;;;;5074674;28;20109;-72
2021/11/10 12:32:49;;;;;;;110.05;41.10;;;11.10;99.90;;;;;;5074085;28;20071;-72